createdAt,value
2023-03-26T00:01:15.571Z,99332.47
2023-03-26T00:03:45.114Z,99346.44
2023-03-26T00:06:16.858Z,99329.25
2023-03-26T00:08:45.207Z,99312.50
2023-03-26T00:11:14.014Z,99335.69
2023-03-26T00:13:43.794Z,99345.06
2023-03-26T00:16:13.824Z,99327.59
2023-03-26T00:18:42.589Z,99327.09
2023-03-26T00:21:12.776Z,99330.38
2023-03-26T00:23:40.074Z,99332.06
2023-03-26T00:26:10.574Z,99317.34
2023-03-26T00:28:40.504Z,99325.78
2023-03-26T00:31:11.998Z,99336.63
2023-03-26T00:33:40.733Z,99338.22
2023-03-26T00:36:14.820Z,99337.06
2023-03-26T00:38:42.979Z,99329.38
2023-03-26T00:41:17.651Z,99337.78
2023-03-26T00:43:48.794Z,99331.56
2023-03-26T00:46:17.630Z,99324.00
2023-03-26T00:48:46.278Z,99313.66
2023-03-26T00:51:17.771Z,99328.56
2023-03-26T00:53:45.847Z,99324.88
2023-03-26T00:56:13.592Z,99324.09
2023-03-26T00:58:41.071Z,99309.28
2023-03-26T01:01:14.146Z,99317.78
2023-03-26T01:03:48.021Z,99313.66
2023-03-26T01:06:32.844Z,99326.66
2023-03-26T01:09:04.601Z,99297.75
2023-03-26T01:11:32.886Z,99315.78
2023-03-26T01:14:02.814Z,99306.53
2023-03-26T01:16:39.602Z,99300.09
2023-03-26T01:19:10.336Z,99307.78
2023-03-26T01:21:38.776Z,99306.28
2023-03-26T01:24:08.070Z,99312.88
2023-03-26T01:26:54.075Z,99305.69
2023-03-26T01:29:33.625Z,99309.53
2023-03-26T01:32:03.492Z,99312.25
2023-03-26T01:34:44.052Z,99294.41
2023-03-26T01:37:20.959Z,99279.88
2023-03-26T01:39:56.986Z,99290.81
2023-03-26T01:42:49.034Z,99283.94
2023-03-26T01:45:22.441Z,99289.59
2023-03-26T01:47:49.843Z,99301.31
2023-03-26T01:50:17.226Z,99287.69
2023-03-26T01:52:44.476Z,99289.94
2023-03-26T01:55:11.854Z,99287.44
2023-03-26T01:57:43.971Z,99273.59
2023-03-26T02:00:25.785Z,99288.75
2023-03-26T02:02:59.231Z,99294.94
2023-03-26T02:05:39.201Z,99283.34
2023-03-26T02:08:35.975Z,99305.78
2023-03-26T02:11:11.742Z,99287.19
2023-03-26T02:13:40.053Z,99294.47
2023-03-26T02:16:09.107Z,99286.72
2023-03-26T02:18:36.809Z,99294.41
2023-03-26T02:21:06.476Z,99296.94
2023-03-26T02:23:35.984Z,99291.56
2023-03-26T02:26:06.612Z,99277.03
2023-03-26T02:28:35.102Z,99297.97
2023-03-26T02:31:02.444Z,99305.28
2023-03-26T02:33:31.104Z,99291.66
2023-03-26T02:36:05.189Z,99287.41
2023-03-26T02:38:35.677Z,99292.78
2023-03-26T02:41:04.660Z,99301.13
2023-03-26T02:43:46.561Z,99293.91
2023-03-26T02:46:17.110Z,99298.78
2023-03-26T02:49:10.732Z,99303.47
2023-03-26T02:51:38.107Z,99310.06
2023-03-26T02:54:16.933Z,99304.16
2023-03-26T02:56:53.473Z,99316.59
2023-03-26T02:59:30.433Z,99317.97
2023-03-26T03:02:20.456Z,99327.00
2023-03-26T03:04:48.075Z,99322.66
2023-03-26T03:07:16.021Z,99340.22
2023-03-26T03:09:43.318Z,99332.75
2023-03-26T03:12:29.015Z,99345.50
2023-03-26T03:14:56.309Z,99345.97
2023-03-26T03:17:23.606Z,99365.41
2023-03-26T03:19:51.008Z,99360.19
2023-03-26T03:22:18.452Z,99343.94
2023-03-26T03:24:47.552Z,99337.75
2023-03-26T03:27:15.599Z,99337.41
2023-03-26T03:29:48.222Z,99346.19
2023-03-26T03:32:34.126Z,99340.28
2023-03-26T03:35:04.987Z,99340.38
2023-03-26T03:37:32.510Z,99339.06
2023-03-26T03:40:00.181Z,99332.81
2023-03-26T03:42:30.830Z,99339.06
2023-03-26T03:45:02.138Z,99330.03
2023-03-26T03:47:48.060Z,99334.72
2023-03-26T04:04:24.824Z,99337.59
2023-03-26T04:07:04.691Z,99311.75
2023-03-26T04:09:47.103Z,99337.63
2023-03-26T04:12:18.115Z,99345.19
2023-03-26T04:14:52.244Z,99345.97
2023-03-26T04:17:23.913Z,99349.03
2023-03-26T04:19:55.066Z,99338.63
2023-03-26T04:22:36.533Z,99345.06
2023-03-26T04:25:07.667Z,99339.50
2023-03-26T04:27:46.275Z,99352.22
2023-03-26T04:30:21.655Z,99357.72
2023-03-26T04:33:01.004Z,99359.81
2023-03-26T04:47:51.196Z,99347.22
2023-03-26T04:50:18.755Z,99356.53
2023-03-26T04:52:46.292Z,99355.84
2023-03-26T04:56:05.876Z,99344.38
2023-03-26T04:58:51.882Z,99335.41
2023-03-26T05:01:21.585Z,99343.25
2023-03-26T05:03:49.058Z,99343.66
2023-03-26T05:06:17.802Z,99345.41
2023-03-26T05:08:45.314Z,99347.31
2023-03-26T05:11:21.182Z,99356.19
2023-03-26T05:13:48.480Z,99358.13
2023-03-26T05:16:19.060Z,99361.41
2023-03-26T05:18:54.791Z,99352.91
2023-03-26T05:21:22.988Z,99354.91
2023-03-26T05:23:50.316Z,99368.53
2023-03-26T05:26:19.312Z,99371.75
2023-03-26T05:28:46.634Z,99362.78
2023-03-26T05:31:23.421Z,99381.81
2023-03-26T05:33:55.101Z,99387.78
2023-03-26T05:36:22.832Z,99391.78
2023-03-26T05:39:01.168Z,99389.59
2023-03-26T05:41:49.193Z,99394.53
2023-03-26T05:44:17.228Z,99388.69
2023-03-26T05:46:45.351Z,99395.91
2023-03-26T05:49:20.250Z,99393.38
2023-03-26T05:51:48.051Z,99393.16
2023-03-26T05:54:35.576Z,99396.28
2023-03-26T05:57:35.604Z,99400.47
2023-03-26T06:00:21.894Z,99395.75
2023-03-26T06:02:56.668Z,99403.16
2023-03-26T06:05:27.188Z,99404.72
2023-03-26T06:08:07.092Z,99409.97
2023-03-26T06:10:38.884Z,99415.91
2023-03-26T06:13:06.162Z,99410.81
2023-03-26T06:15:36.336Z,99389.63
2023-03-26T06:18:12.788Z,99420.00
2023-03-26T06:20:48.716Z,99426.69
2023-03-26T06:23:25.152Z,99431.84
2023-03-26T06:26:01.363Z,99423.00
2023-03-26T06:28:46.975Z,99413.31
2023-03-26T06:31:49.494Z,99408.53
2023-03-26T06:34:20.329Z,99426.03
2023-03-26T06:36:48.899Z,99426.91
2023-03-26T06:39:16.312Z,99430.13
2023-03-26T06:41:55.543Z,99427.97
2023-03-26T06:44:55.024Z,99425.97
2023-03-26T06:47:54.102Z,99428.84
2023-03-26T06:50:41.593Z,99425.28
2023-03-26T06:53:29.083Z,99426.91
2023-03-26T06:56:25.564Z,99427.19
2023-03-26T06:59:04.983Z,99421.47
2023-03-26T07:01:53.574Z,99415.97
2023-03-26T07:04:46.639Z,99429.91
2023-03-26T07:07:32.471Z,99425.69
2023-03-26T07:10:18.294Z,99437.28
2023-03-26T07:13:11.167Z,99426.22
2023-03-26T07:15:56.947Z,99421.50
2023-03-26T07:18:27.017Z,99440.16
2023-03-26T07:20:55.270Z,99428.53
2023-03-26T07:23:24.345Z,99425.25
2023-03-26T07:25:58.351Z,99429.72
2023-03-26T07:29:03.718Z,99402.72
2023-03-26T07:32:23.641Z,99421.59
2023-03-26T07:35:10.974Z,99427.22
2023-03-26T07:38:28.083Z,99420.19
2023-03-26T07:41:27.853Z,99416.41
2023-03-26T07:44:56.824Z,99415.63
2023-03-26T07:47:42.858Z,99420.41
2023-03-26T07:50:19.126Z,99421.13
2023-03-26T07:53:02.273Z,99412.09
2023-03-26T07:55:52.843Z,99418.25
2023-03-26T07:59:08.192Z,99418.25
2023-03-26T08:02:12.994Z,99426.31
2023-03-26T08:05:10.430Z,99432.94
2023-03-26T08:08:13.842Z,99417.34
2023-03-26T08:11:12.753Z,99412.84
2023-03-26T08:13:58.225Z,99412.06
2023-03-26T08:16:35.663Z,99409.34
2023-03-26T08:19:10.870Z,99416.16
2023-03-26T08:21:50.054Z,99410.94
2023-03-26T08:24:37.435Z,99420.66
2023-03-26T08:27:21.456Z,99418.00
2023-03-26T08:30:14.939Z,99422.00
2023-03-26T08:32:42.492Z,99414.97
2023-03-26T08:35:12.322Z,99425.03
2023-03-26T08:37:41.302Z,99416.22
2023-03-26T08:40:11.420Z,99416.66
2023-03-26T08:43:00.497Z,99413.28
2023-03-26T08:45:40.850Z,99410.41
2023-03-26T08:48:32.981Z,99418.59
2023-03-26T08:51:12.908Z,99419.38
2023-03-26T08:54:08.243Z,99420.56
2023-03-26T08:56:53.657Z,99418.13
2023-03-26T08:59:32.694Z,99420.91
2023-03-26T09:02:09.330Z,99422.56
2023-03-26T09:05:14.162Z,99413.91
2023-03-26T09:08:10.889Z,99413.03
2023-03-26T09:10:52.090Z,99422.53
2023-03-26T09:13:25.742Z,99418.84
2023-03-26T09:16:18.818Z,99411.03
2023-03-26T09:18:55.124Z,99419.28
2023-03-26T09:21:47.522Z,99412.31
2023-03-26T09:24:52.195Z,99416.19
2023-03-26T09:28:01.826Z,99394.31
2023-03-26T09:30:47.825Z,99402.50
2023-03-26T09:33:28.036Z,99408.72
2023-03-26T09:36:20.579Z,99409.97
2023-03-26T09:39:03.386Z,99406.97
2023-03-26T09:41:33.044Z,99382.78
2023-03-26T09:44:28.100Z,99371.56
2023-03-26T09:47:24.325Z,99394.59
2023-03-26T09:50:16.374Z,99386.84
2023-03-26T09:53:08.807Z,99390.00
2023-03-26T09:55:48.963Z,99387.56
2023-03-26T09:58:41.418Z,99398.44
2023-03-26T10:01:25.153Z,99378.25
2023-03-26T10:04:20.873Z,99372.88
2023-03-26T10:07:01.365Z,99362.13
2023-03-26T10:10:02.140Z,99379.31
2023-03-26T10:12:33.445Z,99370.72
2023-03-26T10:15:48.893Z,99371.13
2023-03-26T10:18:27.841Z,99356.34
2023-03-26T10:21:08.347Z,99373.03
2023-03-26T10:23:42.089Z,99354.41
2023-03-26T10:26:16.020Z,99350.13
2023-03-26T10:28:59.532Z,99366.81
2023-03-26T10:32:03.650Z,99362.22
2023-03-26T10:34:52.912Z,99341.19
2023-03-26T10:37:36.592Z,99352.38
2023-03-26T10:40:10.228Z,99341.13
2023-03-26T10:42:54.831Z,99346.59
2023-03-26T10:45:43.799Z,99333.03
2023-03-26T10:48:29.459Z,99327.22
2023-03-26T10:51:24.662Z,99335.00
2023-03-26T10:53:58.752Z,99320.22
2023-03-26T10:56:44.989Z,99330.34
2023-03-26T10:59:13.369Z,99333.06
2023-03-26T11:01:55.759Z,99355.22
2023-03-26T11:04:35.790Z,99342.75
2023-03-26T11:07:24.709Z,99325.66
2023-03-26T11:10:01.643Z,99331.88
2023-03-26T11:12:51.640Z,99336.53
2023-03-26T11:15:31.236Z,99334.22
2023-03-26T11:18:19.163Z,99334.63
2023-03-26T11:21:21.076Z,99311.28
2023-03-26T11:24:06.161Z,99327.25
2023-03-26T11:26:42.472Z,99326.47
2023-03-26T11:29:32.813Z,99336.16
2023-03-26T11:32:11.801Z,99321.00
2023-03-26T11:34:47.030Z,99310.50
2023-03-26T11:37:26.717Z,99293.81
2023-03-26T11:39:56.483Z,99293.81
2023-03-26T11:42:24.552Z,99285.28
2023-03-26T11:44:57.296Z,99268.16
2023-03-26T11:47:52.923Z,99286.81
2023-03-26T11:50:30.591Z,99286.81
2023-03-26T11:52:58.554Z,99286.81
2023-03-26T11:55:25.864Z,99286.06
2023-03-26T11:57:54.294Z,99279.81
2023-03-26T12:00:26.125Z,99283.63
2023-03-26T12:02:57.040Z,99281.38
2023-03-26T12:05:31.449Z,99284.13
2023-03-26T12:07:59.961Z,99280.53
2023-03-26T12:10:38.315Z,99276.69
2023-03-26T12:13:29.973Z,99274.34
2023-03-26T12:15:58.693Z,99269.28
2023-03-26T12:18:27.523Z,99262.25
2023-03-26T12:21:11.128Z,99271.13
2023-03-26T12:23:43.628Z,99263.03
2023-03-26T12:26:16.281Z,99248.63
2023-03-26T12:28:50.205Z,99251.03
2023-03-26T12:31:20.617Z,99227.34
2023-03-26T12:34:05.061Z,99231.59
2023-03-26T12:36:33.390Z,99236.94
2023-03-26T12:39:16.124Z,99231.16
2023-03-26T12:43:40.479Z,99217.53
2023-03-26T12:44:59.253Z,99227.69
2023-03-26T12:48:01.069Z,99216.13
2023-03-26T12:50:34.708Z,99207.13
2023-03-26T12:53:27.165Z,99213.00
2023-03-26T12:56:22.019Z,99206.81
2023-03-26T12:58:51.287Z,99200.94
2023-03-26T13:01:21.862Z,99199.41
2023-03-26T13:04:10.884Z,99206.00
2023-03-26T13:06:59.816Z,99185.41
2023-03-26T13:09:44.021Z,99171.81
2023-03-26T13:12:17.389Z,99187.38
2023-03-26T13:15:12.472Z,99182.59
2023-03-26T13:17:49.264Z,99176.06
2023-03-26T13:20:18.876Z,99163.28
2023-03-26T13:23:02.483Z,99143.44
2023-03-26T13:25:36.586Z,99162.84
2023-03-26T13:28:18.570Z,99156.28
2023-03-26T13:31:13.558Z,99126.31
2023-03-26T13:34:18.632Z,99151.13
2023-03-26T13:37:07.643Z,99153.69
2023-03-26T13:39:50.605Z,99141.91
2023-03-26T13:42:20.635Z,99142.75
2023-03-26T13:45:09.981Z,99134.72
2023-03-26T13:47:39.420Z,99132.88
2023-03-26T13:50:10.018Z,99126.56
2023-03-26T13:53:05.684Z,99126.84
2023-03-26T13:55:37.530Z,99120.44
2023-03-26T13:58:11.039Z,99116.41
2023-03-26T14:01:07.371Z,99104.75
2023-03-26T14:03:58.695Z,99111.38
2023-03-26T14:06:48.909Z,99110.25
2023-03-26T14:10:01.978Z,99101.28
2023-03-26T14:12:38.114Z,99104.00
2023-03-26T14:15:07.080Z,99095.44
2023-03-26T14:18:03.773Z,99094.56
2023-03-26T14:20:56.391Z,99099.91
2023-03-26T14:23:49.707Z,99102.31
2023-03-26T14:26:26.543Z,99108.00
2023-03-26T14:29:23.816Z,99115.63
2023-03-26T14:32:09.459Z,99101.53
2023-03-26T14:35:00.560Z,99098.25
2023-03-26T14:37:46.487Z,99089.91
2023-03-26T14:40:14.987Z,99086.78
2023-03-26T14:42:56.502Z,99071.31
2023-03-26T14:45:53.089Z,99089.31
2023-03-26T14:48:34.390Z,99087.19
2023-03-26T14:51:10.259Z,99084.69
2023-03-26T14:53:40.218Z,99088.38
2023-03-26T14:56:36.658Z,99085.47
2023-03-26T14:59:30.096Z,99091.06
2023-03-26T15:02:15.878Z,99084.19
2023-03-26T15:04:48.317Z,99087.84
2023-03-26T15:07:22.251Z,99082.31
2023-03-26T15:10:23.432Z,99085.97
2023-03-26T15:13:05.816Z,99061.63
2023-03-26T15:16:11.672Z,99083.38
2023-03-26T15:19:09.527Z,99081.31
2023-03-26T15:22:31.107Z,99081.38
2023-03-26T15:25:25.047Z,99074.00
2023-03-26T15:28:15.314Z,99073.81
2023-03-26T15:31:18.874Z,99041.66
2023-03-26T15:34:04.358Z,99061.06
2023-03-26T15:36:53.245Z,99065.03
2023-03-26T15:39:58.551Z,99063.97
2023-03-26T15:42:31.505Z,99068.91
2023-03-26T15:45:16.956Z,99054.63
2023-03-26T15:47:54.087Z,99043.03
2023-03-26T15:50:27.142Z,99040.00
2023-03-26T15:52:54.395Z,99045.53
2023-03-26T15:55:27.797Z,99028.16
2023-03-26T15:57:56.976Z,99027.41
2023-03-26T16:00:25.525Z,99022.41
2023-03-26T16:03:11.241Z,99023.31
2023-03-26T16:05:56.742Z,99023.75
2023-03-26T16:08:53.055Z,99014.81
2023-03-26T16:11:46.219Z,99009.81
2023-03-26T16:14:23.352Z,99003.69
2023-03-26T16:17:00.297Z,99001.00
2023-03-26T16:20:03.538Z,98999.94
2023-03-26T16:23:00.738Z,99001.06
2023-03-26T16:25:35.267Z,98994.88
2023-03-26T16:28:11.583Z,99001.91
2023-03-26T16:30:39.184Z,98998.03
2023-03-26T16:33:14.061Z,98972.09
2023-03-26T16:36:04.395Z,99000.38
2023-03-26T16:38:50.346Z,99000.78
2023-03-26T16:41:19.435Z,99003.06
2023-03-26T16:44:25.410Z,99003.34
2023-03-26T16:46:58.461Z,98994.00
2023-03-26T16:49:43.709Z,99003.66
2023-03-26T16:52:42.660Z,98997.88
2023-03-26T16:55:37.873Z,99000.25
2023-03-26T16:58:28.827Z,98996.78
2023-03-26T17:01:15.931Z,98973.91
2023-03-26T17:03:49.156Z,98994.09
2023-03-26T17:06:35.914Z,98994.44
2023-03-26T17:09:26.227Z,98989.41
2023-03-26T17:12:24.529Z,98994.44
2023-03-26T17:15:05.934Z,98998.69
2023-03-26T17:17:36.955Z,99002.94
2023-03-26T17:20:23.106Z,99003.28
2023-03-26T17:23:29.906Z,99004.09
2023-03-26T17:26:11.888Z,98998.66
2023-03-26T17:28:50.478Z,98994.34
2023-03-26T17:31:35.874Z,98997.06
2023-03-26T17:34:40.114Z,98994.31
2023-03-26T17:37:23.562Z,98986.88
2023-03-26T17:39:51.188Z,99009.31
2023-03-26T17:42:37.623Z,99007.75
2023-03-26T17:45:25.196Z,99008.53
2023-03-26T17:48:17.034Z,98997.66
2023-03-26T17:50:58.411Z,98995.44
2023-03-26T17:53:31.090Z,98993.09
2023-03-26T17:56:03.336Z,98972.88
2023-03-26T17:58:47.976Z,98994.22
2023-03-26T18:01:37.257Z,98989.22
2023-03-26T18:04:07.005Z,98989.28
2023-03-26T18:07:08.250Z,98985.75
2023-03-26T18:09:52.002Z,98981.50
2023-03-26T18:12:53.789Z,98974.94
2023-03-26T18:15:31.250Z,98967.59
2023-03-26T18:18:09.660Z,98959.84
2023-03-26T18:20:37.665Z,98957.50
2023-03-26T18:23:23.400Z,98963.69
2023-03-26T18:25:59.566Z,98967.53
2023-03-26T18:28:31.439Z,98958.25
2023-03-26T18:31:08.381Z,98945.00
2023-03-26T18:33:43.845Z,98965.16
2023-03-26T18:36:11.713Z,98967.88
2023-03-26T18:38:41.181Z,98962.06
2023-03-26T18:41:16.922Z,98947.34
2023-03-26T18:43:44.832Z,98954.31
2023-03-26T18:46:13.527Z,98965.91
2023-03-26T18:48:40.952Z,98958.91
2023-03-26T18:51:08.267Z,98968.94
2023-03-26T18:53:37.955Z,98955.38
2023-03-26T18:56:19.417Z,98957.66
2023-03-26T18:58:50.610Z,98962.72
2023-03-26T19:01:25.386Z,98963.44
2023-03-26T19:03:53.661Z,98961.50
2023-03-26T19:06:21.088Z,98952.19
2023-03-26T19:08:48.480Z,98939.34
2023-03-26T19:11:16.719Z,98944.41
2023-03-26T19:13:44.262Z,98944.03
2023-03-26T19:16:22.231Z,98925.75
2023-03-26T19:18:49.708Z,98936.53
2023-03-26T19:21:18.124Z,98937.69
2023-03-26T19:23:46.700Z,98927.53
2023-03-26T19:26:13.982Z,98931.34
2023-03-26T19:28:53.397Z,98908.78
2023-03-26T19:31:34.638Z,98916.47
2023-03-26T19:34:15.713Z,98908.69
2023-03-26T19:36:58.226Z,98903.28
2023-03-26T19:39:38.714Z,98895.09
2023-03-26T19:42:06.560Z,98896.66
2023-03-26T19:44:33.856Z,98876.84
2023-03-26T19:47:26.833Z,98888.50
2023-03-26T19:50:01.900Z,98886.56
2023-03-26T19:52:34.060Z,98886.84
2023-03-26T19:55:10.174Z,98883.75
2023-03-26T19:57:38.019Z,98875.38
2023-03-26T20:00:14.326Z,98866.88
2023-03-26T20:02:42.455Z,98854.50
2023-03-26T20:05:19.501Z,98851.41
2023-03-26T20:07:47.330Z,98870.31
2023-03-26T20:10:14.660Z,98864.50
2023-03-26T20:12:42.046Z,98845.91
2023-03-26T20:15:31.074Z,98867.53
2023-03-26T20:17:58.917Z,98861.34
2023-03-26T20:20:27.557Z,98851.25
2023-03-26T20:22:54.897Z,98852.38
2023-03-26T20:25:33.213Z,98844.25
2023-03-26T20:28:00.579Z,98841.94
2023-03-26T20:30:37.345Z,98835.75
2023-03-26T20:33:12.849Z,98833.41
2023-03-26T20:35:42.835Z,98831.88
2023-03-26T20:38:10.351Z,98816.34
2023-03-26T20:40:38.445Z,98815.91
2023-03-26T20:43:11.782Z,98813.28
2023-03-26T20:45:39.061Z,98804.72
2023-03-26T20:48:07.210Z,98783.06
2023-03-26T20:50:35.964Z,98790.78
2023-03-26T20:53:06.485Z,98782.31
2023-03-26T20:55:33.699Z,98782.69
2023-03-26T20:58:01.134Z,98783.81
2023-03-26T21:00:28.700Z,98768.34
2023-03-26T21:02:56.945Z,98774.16
2023-03-26T21:05:25.775Z,98762.19
2023-03-26T21:08:00.111Z,98761.38
2023-03-26T21:10:29.619Z,98747.41
2023-03-26T21:13:00.239Z,98752.03
2023-03-26T21:15:27.888Z,98762.03
2023-03-26T21:17:55.832Z,98754.97
2023-03-26T21:20:24.562Z,98739.50
2023-03-26T21:23:13.197Z,98735.56
2023-03-26T21:26:28.292Z,98726.56
2023-03-26T21:28:55.628Z,98728.22
2023-03-26T21:31:24.170Z,98726.31
2023-03-26T21:33:51.912Z,98716.25
2023-03-26T21:36:23.042Z,98713.63
2023-03-26T21:38:50.682Z,98699.31
2023-03-26T21:41:28.872Z,98707.06
2023-03-26T21:43:56.121Z,98704.69
2023-03-26T21:46:24.682Z,98688.38
2023-03-26T21:48:52.157Z,98701.50
2023-03-26T21:51:20.896Z,98693.47
2023-03-26T21:53:48.974Z,98686.13
2023-03-26T21:56:25.588Z,98684.31
2023-03-26T21:59:20.501Z,98686.34
2023-03-26T22:02:12.599Z,98668.78
2023-03-26T22:04:47.309Z,98678.09
2023-03-26T22:07:19.918Z,98679.09
2023-03-26T22:09:47.481Z,98683.84
2023-03-26T22:12:14.788Z,98666.19
2023-03-26T22:14:42.410Z,98656.97
2023-03-26T22:17:09.689Z,98638.03
2023-03-26T22:19:37.174Z,98636.94
2023-03-26T22:22:05.327Z,98633.06
2023-03-26T22:24:32.919Z,98624.56
2023-03-26T22:27:00.158Z,98623.44
2023-03-26T22:29:27.483Z,98628.06
2023-03-26T22:31:54.728Z,98632.31
2023-03-26T22:34:23.180Z,98619.22
2023-03-26T22:36:50.506Z,98623.09
2023-03-26T22:39:18.340Z,98618.88
2023-03-26T22:41:45.597Z,98606.09
2023-03-26T22:44:19.739Z,98605.34
2023-03-26T22:46:51.464Z,98616.16
2023-03-26T22:49:19.122Z,98601.09
2023-03-26T22:51:46.788Z,98602.25
2023-03-26T22:54:14.581Z,98595.69
2023-03-26T22:56:41.971Z,98599.56
2023-03-26T22:59:09.397Z,98599.94
2023-03-26T23:01:37.433Z,98603.41
2023-03-26T23:04:04.807Z,98592.97
2023-03-26T23:06:32.230Z,98594.53
2023-03-26T23:09:00.078Z,98589.91
2023-03-26T23:11:29.621Z,98587.19
2023-03-26T23:13:57.036Z,98592.19
2023-03-26T23:16:24.388Z,98579.06
2023-03-26T23:18:51.694Z,98585.25
2023-03-26T23:21:22.139Z,98582.16
2023-03-26T23:23:51.673Z,98578.31
2023-03-26T23:26:19.077Z,98564.38
2023-03-26T23:28:46.597Z,98570.56
2023-03-26T23:31:14.174Z,98587.56
2023-03-26T23:33:46.595Z,98579.03
2023-03-26T23:36:17.598Z,98589.47
2023-03-26T23:38:48.228Z,98585.19
2023-03-26T23:41:17.137Z,98583.69
2023-03-26T23:43:53.468Z,98588.28
2023-03-26T23:46:23.594Z,98589.06
2023-03-26T23:48:51.523Z,98584.41
2023-03-26T23:51:20.215Z,98584.41
2023-03-26T23:53:47.730Z,98582.47
2023-03-26T23:56:15.457Z,98585.13
2023-03-26T23:58:43.013Z,98583.56
